Thunder radar more information blitzortung!


Löydät sääaseman tiedot myös:

European Weather Network

Finland Weather Exchange

Weather Underground

AWEKAS



Weather Underground säähistoriasivu

Päivittäin yhteenveto Tou 20, 2017 Yksiköt:  Metriset    Englantilaiset   Molemmat
« Edellinen Päivä
Seuraava Päivä »
Päivittäin Viikoittain Kuukausittain Vuosittain Mukautettu
  Korkea: Matala: Keskiarvo:
Lämpötila: -17.8 °C -15.2 °C -11.3 °C
Kastepiste: -17.8 °C -17.2 °C -14.2 °C
Kosteus: Humidity % 47 % 72 %
Tuulen nopeus: 0 km/h 0 km/h 0 km/h
Tuulenpuuska: 0 km/h - -
Tuuli:- - North
Ilmanpaine: 0 hPa 34293.4 hPa -
Sade: 0 mm    
Historical Graphs
 
 
Taulukkotiedot Tou 20, 2017
Aika Lämpötila Kastepiste Ilmanpaine Tuuli Tuulen nopeus Tuulenpuuska Kosteus Sademäärä (tunneittain)
-17.8 °C -17.8 °C 0 hPa Calm     Humidity % 0 mm
00:00 -11.2 °C -12.7 °C 34293.4 hPa Calm     83 % 0 mm
00:15 -11.2 °C -12.8 °C 34293.4 hPa Calm     83 % 0 mm
00:30 -11.3 °C -12.9 °C 34293.4 hPa Calm     83 % 0 mm
00:45 -11.4 °C -12.9 °C 34303.6 hPa Calm     84 % 0 mm
01:00 -11.4 °C -12.9 °C 34303.6 hPa Calm     84 % 0 mm
01:15 -11.5 °C -12.9 °C 34303.6 hPa Calm     84 % 0 mm
01:30 -11.7 °C -13 °C 34303.6 hPa Calm     85 % 0 mm
01:45 -11.9 °C -13.2 °C 34313.7 hPa Calm     86 % 0 mm
02:00 -12.3 °C -13.4 °C 34313.7 hPa Calm     87 % 0 mm
02:15 -12.6 °C -13.5 °C 34313.7 hPa Calm     89 % 0 mm
02:30 -12.8 °C -13.3 °C 34327.3 hPa Calm     94 % 0 mm
02:45 -12.4 °C -13.2 °C 34327.3 hPa Calm     92 % 0 mm
03:00 -12.1 °C -13 °C 34337.4 hPa Calm     90 % 0 mm
03:15 -12.1 °C -13.1 °C 34347.6 hPa Calm     89 % 0 mm
03:30 -12.1 °C -13 °C 34347.6 hPa Calm     89 % 0 mm
03:45 -12.1 °C -13 °C 34361.1 hPa Calm     89 % 0 mm
04:00 -11.9 °C -12.8 °C 34361.1 hPa Calm     90 % 0 mm
04:15 -11.9 °C -12.8 °C 34371.3 hPa Calm     89 % 0 mm
04:30 -12.1 °C -13 °C 34371.3 hPa Calm     89 % 0 mm
04:45 -12.2 °C -13.1 °C 34384.8 hPa Calm     90 % 0 mm
05:00 -12.3 °C -13.2 °C 34384.8 hPa Calm     90 % 0 mm
05:15 -12.4 °C -13.3 °C 34384.8 hPa Calm     90 % 0 mm
05:30 -12.5 °C -13.4 °C 34395 hPa Calm     89 % 0 mm
05:45 -12.6 °C -13.7 °C 34395 hPa Calm     87 % 0 mm
06:00 -12.6 °C -13.8 °C 34405.1 hPa Calm     86 % 0 mm
06:15 -12.6 °C -13.9 °C 34405.1 hPa Calm     85 % 0 mm
06:30 -12.6 °C -13.9 °C 34405.1 hPa Calm     85 % 0 mm
06:45 -12.6 °C -13.9 °C 34418.7 hPa Calm     84 % 0 mm
07:00 -12.6 °C -14.1 °C 34418.7 hPa Calm     83 % 0 mm
07:15 -12.5 °C -14.1 °C 34418.7 hPa Calm     82 % 0 mm
07:30 -12.5 °C -14 °C 34428.8 hPa Calm     83 % 0 mm
07:45 -12.7 °C -14 °C 34428.8 hPa Calm     85 % 0 mm
08:00 -12.8 °C -13.9 °C 34442.4 hPa Calm     87 % 0 mm
08:15 -12.7 °C -13.8 °C 34442.4 hPa Calm     88 % 0 mm
08:30 -12.6 °C -13.7 °C 34452.6 hPa Calm     88 % 0 mm
08:45 -12.6 °C -13.8 °C 34452.6 hPa Calm     86 % 0 mm
09:00 -12.5 °C -13.7 °C 34452.6 hPa Calm     86 % 0 mm
09:15 -12.4 °C -13.7 °C 34452.6 hPa Calm     85 % 0 mm
09:30 -12.3 °C -13.6 °C 34452.6 hPa Calm     85 % 0 mm
09:45 -12.1 °C -13.6 °C 34462.7 hPa Calm     84 % 0 mm
10:00 -12 °C -13.4 °C 34476.3 hPa Calm     84 % 0 mm
10:15 -11.9 °C -13.4 °C 34462.7 hPa Calm     83 % 0 mm
10:30 -11.7 °C -13.4 °C 34476.3 hPa Calm     81 % 0 mm
10:45 -11.2 °C -13.2 °C 34476.3 hPa Calm     79 % 0 mm
11:00 -11.3 °C -13.4 °C 34486.4 hPa Calm     78 % 0 mm
11:15 -11 °C -13.1 °C 34486.4 hPa Calm     78 % 0 mm
11:30 -10.6 °C -13.3 °C 34486.4 hPa Calm     72 % 0 mm
11:45 -10.3 °C -12.9 °C 34486.4 hPa Calm     74 % 0 mm
12:00 -10.6 °C -13.2 °C 34496.6 hPa Calm     73 % 0 mm
12:15 -10.4 °C -13.3 °C 34496.6 hPa Calm     71 % 0 mm
12:30 -10.3 °C -13.1 °C 34486.4 hPa Calm     72 % 0 mm
12:45 -9.7 °C -13.4 °C 34486.4 hPa Calm     64 % 0 mm
13:00 -9.6 °C -13.3 °C 34486.4 hPa Calm     64 % 0 mm
13:15 -9.8 °C -13.6 °C 34486.4 hPa Calm     64 % 0 mm
13:30 -9.8 °C -13.6 °C 34486.4 hPa Calm     64 % 0 mm
13:45 -9.7 °C -13.4 °C 34486.4 hPa Calm     64 % 0 mm
14:00 -9.3 °C -13.4 °C 34486.4 hPa Calm     61 % 0 mm
14:15 -9.3 °C -13.7 °C 34486.4 hPa Calm     59 % 0 mm
14:30 -9.2 °C -13.4 °C 34486.4 hPa Calm     60 % 0 mm
14:45 -9.2 °C -13.4 °C 34486.4 hPa Calm     61 % 0 mm
15:00 -9.2 °C -13.7 °C 34486.4 hPa Calm     58 % 0 mm
15:15 -9.3 °C -13.4 °C 34486.4 hPa Calm     61 % 0 mm
15:30 -9.1 °C -13.5 °C 34486.4 hPa Calm     59 % 0 mm
15:45 -8.8 °C -13.7 °C 34486.4 hPa Calm     56 % 0 mm
16:00 -8.8 °C -13.7 °C 34486.4 hPa Calm     56 % 0 mm
16:15 -8.7 °C -13.6 °C 34486.4 hPa Calm     56 % 0 mm
16:30 -8.5 °C -13.8 °C 34486.4 hPa Calm     53 % 0 mm
16:45 -8.5 °C -13.7 °C 34486.4 hPa Calm     54 % 0 mm
17:00 -8.7 °C -14.5 °C 34486.4 hPa Calm     50 % 0 mm
17:15 -8.7 °C -14.5 °C 34486.4 hPa Calm     50 % 0 mm
17:30 -8.7 °C -14.9 °C 34486.4 hPa Calm     48 % 0 mm
17:45 -8.8 °C -15.1 °C 34486.4 hPa Calm     47 % 0 mm
18:00 -8.9 °C -14.9 °C 34486.4 hPa Calm     49 % 0 mm
18:15 -9.1 °C -15 °C 34486.4 hPa Calm     49 % 0 mm
18:30 -9.3 °C -15.1 °C 34486.4 hPa Calm     50 % 0 mm
18:45 -9.5 °C -15.6 °C 34486.4 hPa Calm     48 % 0 mm
19:00 -9.7 °C -15.4 °C 34486.4 hPa Calm     50 % 0 mm
19:15 -9.9 °C -15.6 °C 34486.4 hPa Calm     50 % 0 mm
19:30 -10.1 °C -15.8 °C 34486.4 hPa Calm     50 % 0 mm
19:45 -10.3 °C -16 °C 34486.4 hPa Calm     50 % 0 mm
20:00 -10.6 °C -16.2 °C 34496.6 hPa Calm     50 % 0 mm
20:15 -10.8 °C -16.2 °C 34496.6 hPa Calm     52 % 0 mm
20:30 -11.2 °C -16 °C 34486.4 hPa Calm     55 % 0 mm
20:45 -11.4 °C -16 °C 34496.6 hPa Calm     57 % 0 mm
21:15 -12 °C -16.2 °C 34486.4 hPa Calm     59 % 0 mm
21:30 -12.2 °C -16.4 °C 34496.6 hPa Calm     59 % 0 mm
21:45 -12.3 °C -16.3 °C 34496.6 hPa Calm     61 % 0 mm
22:00 -12.7 °C -16.5 °C 34496.6 hPa Calm     62 % 0 mm
22:15 -12.9 °C -16.6 °C 34496.6 hPa Calm     64 % 0 mm
22:30 -13.3 °C -16.6 °C 34510.1 hPa Calm     66 % 0 mm
22:45 -13.8 °C -16.6 °C 34496.6 hPa Calm     70 % 0 mm
23:00 -14.3 °C -16.9 °C 34510.1 hPa Calm     72 % 0 mm
23:15 -14.7 °C -16.9 °C 34496.6 hPa Calm     76 % 0 mm
23:30 -15 °C -17.1 °C 34510.1 hPa Calm     77 % 0 mm
23:45 -15.2 °C -17.2 °C 34510.1 hPa Calm     78 % 0 mm
Esan sääasema
Terveisin Weather Underground - 2.75 mb

Alkuperäinen skripti  Jim McMurry - jmcmurry@mwt.net Sovitettu myös templatelle  Wim van der Kuil - Leuven-Template.eu

Laitteet joita käytämme:

Sääasema
Davis VP2

Sääasemaohjelma
Cumulus

Sääaseman tietokone
Asus EeePC

Palveluntarjoaja
Suncomet

Davis VP2

Cumulus

Asus EeePC

Suncomet